Latest Weather Observations for Cape Moreton

IDQ60901

Issued at 10:21 pm EST Saturday 24 June 2017 (issued every 10 minutes, with the page automatically refreshed every 10 minutes)

About weather observations | Map of Brisbane area stations | Latest observations for Brisbane area | Other Formats
Station Details ID: 040043 Name: CAPE MORETON LIGHTHOUSE Lat: -27.03 Lon: 153.47 Height: 99.9 m
Data from the previous 72 hours. | See also: Recent months at Cape Moreton
Date/Time
EST
Temp
°C
App
Temp
°C
Dew
Point
°C
Rel
Hum
%
Delta-T
°C
Wind Press
QNH
hPa
Press
MSL
hPa
Rain since
9am
mm
Dir  Spd
km/h
Gust
km/h
Spd
kts
Gust
kts
24/10:00pm 19.2 15.6 12.0 63 4.0 E 22 26 12 14 1018.6 1018.4 0.0
24/09:30pm 19.3 15.3 11.8 62 4.2 E 24 28 13 15 1018.4 1018.2 0.0
24/09:00pm 19.5 15.1 11.8 61 4.3 ESE 26 33 14 18 1018.1 1017.9 0.0
24/08:30pm 19.7 15.6 11.5 59 4.5 ESE 24 28 13 15 1018.2 1018.0 0.0
24/08:00pm 19.7 15.7 10.4 55 5.0 ESE 22 26 12 14 1018.2 1018.0 0.0
24/07:30pm 19.9 15.9 10.3 54 5.2 E 22 26 12 14 1018.0 1017.8 0.0
24/07:00pm 19.8 16.2 10.0 53 5.3 ESE 19 22 10 12 1017.8 1017.6 0.0
24/06:30pm 19.9 15.9 8.9 49 5.8 ESE 20 24 11 13 1017.4 1017.2 0.0
24/06:00pm 19.7 17.2 9.6 52 5.4 SE 13 17 7 9 1017.1 1016.9 0.0
24/05:30pm 19.9 16.9 7.9 46 6.2 SE 13 15 7 8 1016.9 1016.7 0.0
24/05:00pm 20.7 17.8 6.6 40 7.1 S 11 13 6 7 1016.6 1016.4 0.0
24/04:30pm 21.2 18.8 7.1 40 7.3 SW 9 13 5 7 1016.4 1016.2 0.0
24/04:00pm 21.7 18.5 6.8 38 7.6 SW 13 19 7 10 1016.1 1015.9 0.0
24/03:30pm 22.0 19.3 7.4 39 7.6 SW 11 17 6 9 1016.0 1015.8 0.0
24/03:00pm 22.4 19.5 8.1 40 7.5 SW 13 20 7 11 1016.0 1015.8 0.0
24/02:30pm 22.5 19.7 8.6 41 7.4 SW 13 20 7 11 1016.1 1015.9 0.0
24/02:00pm 22.3 19.1 8.4 41 7.4 WSW 15 20 8 11 1015.8 1015.6 0.0
24/01:30pm 22.1 18.1 8.2 41 7.3 SW 19 26 10 14 1015.8 1015.6 0.0
24/01:00pm 22.0 18.7 8.2 41 7.3 WSW 15 20 8 11 1016.0 1015.8 0.0
24/12:30pm 22.0 20.0 10.2 47 6.5 SW 11 17 6 9 1016.3 1016.1 0.0
24/12:00pm 21.2 19.3 11.8 55 5.3 WSW 13 24 7 13 1016.9 1016.7 0.0
24/11:30am 21.0 18.3 10.5 51 5.7 W 15 20 8 11 1017.3 1017.1 0.0
24/11:00am 21.1 17.6 10.3 50 5.9 WSW 19 24 10 13 1018.0 1017.8 0.0
24/10:30am 20.9 18.4 11.0 53 5.5 WSW 15 26 8 14 1018.4 1018.2 0.0
24/10:00am 19.3 16.5 11.3 60 4.4 W 17 22 9 12 1018.6 1018.4 0.0
24/09:30am 18.6 14.0 11.2 62 4.0 W 26 35 14 19 1018.4 1018.2 0.0
24/09:00am 17.8 14.6 11.4 66 3.5 W 19 26 10 14 1018.5 1018.3 0.0
24/08:30am 16.9 13.3 11.8 72 2.8 W 22 26 12 14 1018.4 1018.2 0.0
24/08:00am 16.2 12.9 11.6 74 2.5 W 20 24 11 13 1018.1 1017.9 0.0
24/07:30am 16.3 13.2 11.7 74 2.5 W 19 20 10 11 1017.8 1017.6 0.0
24/07:00am 16.5 13.2 11.6 73 2.7 W 20 24 11 13 1017.7 1017.5 0.0
24/06:30am 16.4 13.3 12.2 76 2.3 W 20 24 11 13 1017.4 1017.2 0.0
24/06:00am 16.7 13.7 12.5 76 2.3 W 20 24 11 13 1017.1 1016.9 0.0
24/05:30am 17.4 14.9 13.5 78 2.2 WNW 19 24 10 13 1016.8 1016.6 0.0
24/05:00am 17.7 14.5 11.9 69 3.2 WNW 20 26 11 14 1016.6 1016.4 0.0
24/04:30am 18.1 14.5 11.9 67 3.4 WNW 22 32 12 17 1016.5 1016.3 0.0
24/04:00am 18.4 15.0 12.6 69 3.2 WNW 22 32 12 17 1016.5 1016.3 0.0
24/03:30am 18.5 14.8 11.6 64 3.8 WNW 22 32 12 17 1016.7 1016.5 0.0
24/03:00am 18.5 15.3 11.8 65 3.7 NW 20 30 11 16 1016.9 1016.7 0.0
24/02:30am 18.8 16.5 14.7 77 2.4 NW 20 26 11 14 1017.4 1017.2 0.0
24/02:00am 19.0 17.1 15.1 78 2.3 NW 19 28 10 15 1017.5 1017.3 0.0
24/01:30am 19.2 17.1 14.7 75 2.6 NW 19 28 10 15 1017.7 1017.5 0.0
24/01:00am 19.3 17.5 15.4 78 2.3 NW 19 24 10 13 1017.8 1017.6 0.0
24/12:30am 19.3 16.9 14.3 73 2.9 NNW 20 26 11 14 1017.8 1017.6 0.0
24/12:00am 19.3 17.7 15.0 76 2.5 NW 17 22 9 12 1018.3 1018.1 0.0
 
Date/Time
EST
Temp
°C
App
Temp
°C
Dew
Point
°C
Rel
Hum
%
Delta-T
°C
Wind Press
QNH
hPa
Press
MSL
hPa
Rain since
9am
mm
Dir  Spd
km/h
Gust
km/h
Spd
kts
Gust
kts
23/11:30pm 19.3 17.4 14.3 73 2.9 NW 17 22 9 12 1018.6 1018.4 0.0
23/11:00pm 19.5 17.1 13.9 70 3.2 NW 19 26 10 14 1018.8 1018.6 0.0
23/10:30pm 19.5 18.0 14.3 72 3.0 NW 15 22 8 12 1019.0 1018.8 0.0
23/10:00pm 19.5 17.4 13.7 69 3.3 NNW 17 22 9 12 1019.1 1018.9 0.0
23/09:30pm 19.7 17.4 14.1 70 3.2 NNW 19 24 10 13 1019.4 1019.2 0.0
23/09:00pm 19.5 17.4 13.7 69 3.3 N 17 24 9 13 1019.4 1019.2 0.0
23/08:30pm 19.3 17.4 13.0 67 3.6 N 15 19 8 10 1019.7 1019.5 0.0
23/08:00pm 19.2 17.2 12.7 66 3.7 N 15 19 8 10 1019.4 1019.2 0.0
23/07:30pm 19.1 17.1 12.8 67 3.6 N 15 19 8 10 1019.1 1018.9 0.0
23/07:00pm 19.0 17.3 12.5 66 3.6 NNE 13 15 7 8 1019.2 1019.0 0.0
23/06:30pm 18.9 17.6 12.6 67 3.5 NE 11 15 6 8 1019.1 1018.9 0.0
23/06:00pm 18.8 18.1 11.9 64 3.8 NNE 7 11 4 6 1019.1 1018.9 0.0
23/05:30pm 18.8 17.8 12.3 66 3.6 NE 9 13 5 7 1018.8 1018.6 0.0
23/05:00pm 18.8 17.9 12.5 67 3.5 NE 9 11 5 6 1018.7 1018.5 0.0
23/04:30pm 19.2 18.3 12.5 65 3.8 NE 9 11 5 6 1018.7 1018.5 0.0
23/04:00pm 19.6 19.4 13.1 66 3.7 E 6 7 3 4 1018.7 1018.5 0.0
23/03:30pm 19.8 19.3 12.8 64 4.0 SE 7 9 4 5 1018.8 1018.6 0.0
23/03:00pm 20.0 19.5 12.7 63 4.1 SE 7 11 4 6 1018.9 1018.7 0.0
23/02:30pm 20.3 19.5 13.0 63 4.2 SE 9 13 5 7 1019.1 1018.9 0.0
23/02:00pm 20.5 19.0 13.2 63 4.2 SE 13 19 7 10 1019.2 1019.0 0.0
23/01:30pm 20.3 17.6 13.0 63 4.2 SE 19 24 10 13 1019.6 1019.4 0.0
23/01:00pm 19.8 17.1 13.0 65 3.9 SE 19 22 10 12 1019.9 1019.7 0.0
23/12:30pm 20.7 19.3 13.4 63 4.2 SSE 13 19 7 10 1020.3 1020.2 0.0
23/12:00pm 20.1 18.8 13.6 66 3.7 S 13 17 7 9 1020.8 1020.7 0.0
23/11:30am 20.3 18.7 14.0 67 3.7 S 15 20 8 11 1021.6 1021.5 0.0
23/11:00am 19.2 17.7 13.2 68 3.4 S 13 19 7 10 1022.2 1022.1 0.0
23/10:30am 18.6 17.0 12.8 69 3.3 SW 13 20 7 11 1022.7 1022.6 0.0
23/10:00am 18.6 17.1 13.2 71 3.1 SW 13 20 7 11 1022.8 1022.7 0.0
23/09:30am 17.9 16.5 13.4 75 2.6 SW 13 19 7 10 1022.7 1022.6 0.0
23/09:00am 16.6 14.0 13.1 80 2.0 SW 19 26 10 14 1022.5 1022.4 0.0
23/08:30am 16.6 13.8 12.6 77 2.2 SW 19 28 10 15 1022.5 1022.4 0.0
23/08:00am 16.4 13.6 13.1 81 1.8 SW 20 26 11 14 1022.2 1022.1 0.0
23/07:30am 15.3 12.0 12.8 85 1.4 SW 22 28 12 15 1022.1 1022.0 0.0
23/07:00am 14.9 11.2 12.8 87 1.2 SW 24 32 13 17 1021.7 1021.6 0.0
23/06:30am 14.7 11.4 12.9 89 1.0 SW 22 26 12 14 1021.5 1021.4 0.0
23/06:00am 14.6 11.2 12.5 87 1.1 SW 22 26 12 14 1021.3 1021.2 0.0
23/05:30am 14.5 10.9 12.0 85 1.4 SW 22 26 12 14 1021.1 1021.0 0.0
23/05:00am 15.0 11.6 12.5 85 1.4 SW 22 24 12 13 1021.0 1020.9 0.0
23/04:30am 15.2 11.7 12.3 83 1.6 SW 22 26 12 14 1021.1 1021.0 0.0
23/04:00am 15.2 12.0 11.8 80 1.8 SSW 20 24 11 13 1021.2 1021.1 0.0
23/03:30am 15.3 12.2 12.1 81 1.7 SW 20 26 11 14 1021.3 1021.2 0.0
23/03:00am 15.7 12.6 12.1 79 2.0 SSW 20 28 11 15 1021.6 1021.5 0.0
23/02:30am 16.0 12.7 11.6 75 2.4 SSW 20 24 11 13 1021.7 1021.6 0.0
23/02:00am 16.1 12.7 11.3 73 2.6 SSW 20 26 11 14 1021.9 1021.8 0.0
23/01:30am 16.7 13.0 11.6 72 2.8 S 22 26 12 14 1022.0 1021.9 0.0
23/01:00am 16.6 13.0 10.7 68 3.1 SSW 20 24 11 13 1022.3 1022.2 0.0
23/12:30am 16.6 13.0 10.5 67 3.3 SSW 20 24 11 13 1022.6 1022.5 0.0
23/12:00am 16.9 13.5 10.5 66 3.4 S 19 26 10 14 1022.8 1022.7 0.0
 
Date/Time
EST
Temp
°C
App
Temp
°C
Dew
Point
°C
Rel
Hum
%
Delta-T
°C
Wind Press
QNH
hPa
Press
MSL
hPa
Rain since
9am
mm
Dir  Spd
km/h
Gust
km/h
Spd
kts
Gust
kts
22/11:30pm 17.8 14.2 10.7 63 3.8 S 20 26 11 14 1023.2 1023.0 0.0
22/11:00pm 18.2 14.8 10.6 61 4.1 SSE 19 26 10 14 1023.4 1023.2 0.0
22/10:30pm 19.0 15.3 11.6 62 4.1 SSE 22 30 12 16 1023.5 1023.3 0.0
22/10:00pm 18.8 15.3 10.9 60 4.3 SSE 20 26 11 14 1023.6 1023.4 0.0
22/09:30pm 18.8 15.6 11.9 64 3.8 SE 20 30 11 16 1023.7 1023.5 0.0
22/09:00pm 18.9 14.4 11.5 62 4.1 SE 26 32 14 17 1023.6 1023.4 0.0
22/08:30pm 18.9 14.6 11.9 64 3.9 SE 26 32 14 17 1023.6 1023.4 0.0
22/08:00pm 18.9 14.1 11.7 63 4.0 SE 28 37 15 20 1023.8 1023.6 0.0
22/07:30pm 18.9 13.2 11.7 63 4.0 SE 33 41 18 22 1023.6 1023.4 0.0
22/07:00pm 19.0 12.6 12.0 64 3.9 SE 37 46 20 25 1023.4 1023.2 0.0
22/06:30pm 19.1 12.1 11.4 61 4.2 SE 39 46 21 25 1023.1 1022.9 0.0
22/06:00pm 19.2 12.0 10.7 58 4.6 SE 39 46 21 25 1022.8 1022.7 0.0
22/05:30pm 19.2 12.2 11.3 60 4.3 SE 39 48 21 26 1022.5 1022.4 0.0
22/05:00pm 19.2 12.4 10.7 58 4.6 SE 37 50 20 27 1022.4 1022.3 0.0
22/04:30pm 19.3 12.3 11.3 60 4.4 SSE 39 48 21 26 1022.3 1022.2 0.0
22/04:00pm 19.4 12.3 10.9 58 4.6 SSE 39 48 21 26 1022.3 1022.2 0.0
22/03:30pm 19.4 12.6 11.9 62 4.2 SSE 39 48 21 26 1022.1 1022.0 0.0
22/03:00pm 19.4 12.4 12.4 64 3.9 SSE 41 50 22 27 1022.1 1022.0 0.0
22/02:30pm 19.6 13.3 13.5 68 3.5 SSE 39 48 21 26 1022.0 1021.9 0.0
22/02:00pm 19.8 14.5 14.2 70 3.2 SSE 35 46 19 25 1022.2 1022.1 0.0
22/01:43pm 19.5 14.7 14.1 71 3.1 SSE 32 50 17 27 1022.2 1022.1 0.0
22/01:30pm 19.5 14.8 14.3 72 3.0 SSE 32 43 17 23 1022.4 1022.3 0.0
22/01:00pm 19.7 15.1 14.7 73 2.9 SSE 32 41 17 22 1022.8 1022.7 0.0
22/12:30pm 19.7 15.5 14.7 73 2.9 SSE 30 41 16 22 1023.2 1023.0 0.0
22/12:00pm 19.9 16.1 14.7 72 3.0 SSE 28 35 15 19 1023.6 1023.4 0.0
22/11:30am 19.8 15.7 15.0 74 2.8 SSE 30 41 16 22 1024.1 1023.9 0.0
22/11:00am 19.1 16.2 15.0 77 2.4 S 24 39 13 21 1024.5 1024.3 0.0
22/10:30am 18.3 14.7 14.2 77 2.4 SSW 26 33 14 18 1024.9 1024.7 0.0
22/10:00am 17.8 13.5 14.5 81 1.9 S 30 43 16 23 1025.0 1024.8 0.0
22/09:30am 18.4 14.1 14.3 77 2.4 S 30 44 16 24 1025.1 1024.9 0.0
22/09:00am 17.7 14.5 13.0 74 2.6 SSW 22 33 12 18 1025.1 1024.9 0.0
22/08:30am 17.2 13.4 13.5 79 2.1 S 26 33 14 18 1024.9 1024.7 0.0
22/08:00am 16.6 11.7 12.6 77 2.2 SSW 30 43 16 23 1024.4 1024.2 0.0
22/07:30am 16.4 12.0 12.8 79 2.0 SSW 28 39 15 21 1024.2 1024.0 0.0
22/07:00am 15.9 12.2 12.8 82 1.7 SSW 24 32 13 17 1024.0 1023.8 0.0
22/06:30am 16.3 12.2 12.8 80 1.9 SSW 26 35 14 19 1023.7 1023.5 0.0
22/06:00am 16.3 12.3 13.0 81 1.8 SSW 26 33 14 18 1023.3 1023.1 0.0
22/05:30am 16.4 11.1 13.1 81 1.8 SSW 33 41 18 22 1022.8 1022.7 0.0
22/05:00am 16.1 12.1 13.0 82 1.7 SSW 26 37 14 20 1022.5 1022.4 0.0
22/04:30am 16.2 11.9 13.1 82 1.7 SSW 28 37 15 20 1022.5 1022.4 0.0
22/04:00am 16.2 11.9 13.1 82 1.7 SSW 28 39 15 21 1022.3 1022.2 0.0
22/03:30am 16.6 11.9 13.3 81 1.9 SSW 30 39 16 21 1022.3 1022.2 0.0
22/03:00am 16.9 12.6 13.2 79 2.1 SSW 28 37 15 20 1022.2 1022.1 0.0
22/02:30am 17.1 12.3 12.8 76 2.4 SSW 30 35 16 19 1022.3 1022.2 0.0
22/02:00am 16.8 13.0 12.5 76 2.4 SW 24 33 13 18 1022.6 1022.5 0.0
22/01:30am 17.1 12.7 12.8 76 2.4 SSW 28 37 15 20 1022.7 1022.6 0.0
22/01:00am 17.0 12.5 12.7 76 2.4 SSW 28 37 15 20 1022.8 1022.7 0.0
22/12:30am 17.1 12.2 12.6 75 2.5 SSW 30 37 16 20 1022.9 1022.8 0.0
22/12:00am 17.8 14.1 13.9 78 2.2 S 26 43 14 23 1023.1 1022.9 0.0
 
Date/Time
EST
Temp
°C
App
Temp
°C
Dew
Point
°C
Rel
Hum
%
Delta-T
°C
Wind Press
QNH
hPa
Press
MSL
hPa
Rain since
9am
mm
Dir  Spd
km/h
Gust
km/h
Spd
kts
Gust
kts
21/11:30pm 18.5 12.4 14.2 76 2.5 SSE 39 50 21 27 1023.1 1022.9 0.0
21/11:10pm 18.1 14.3 14.6 80 2.0 S 28 48 15 26 1023.1 1022.9 0.0
21/11:00pm 17.3 12.9 13.0 76 2.4 SSW 28 37 15 20 1023.4 1023.2 0.0
21/10:30pm 17.7 12.5 12.8 73 2.7 SSW 32 41 17 22 1023.4 1023.2 0.0

Latest Capital City Observations: Canberra | Sydney | Melbourne | Brisbane | Adelaide | Perth | Hobart | Darwin

Other Formats:

Comma delimited format used in spreadsheet applications
http://www.bom.gov.au/fwo/IDQ60901/IDQ60901.94594.axf

JavaScript Object Notation format (JSON) in row-major order
http://www.bom.gov.au/fwo/IDQ60901/IDQ60901.94594.json